CEB961 RPLL-RPMD
Flight info
| Callsign | CEB961 |
|---|---|
| Flight time | N/A |
| Altitude | 37000 |
| Route | IPATA2R IPATA B462 MASBA W9A BN W9 RIMAR RIMAR2R |
| Aircraft | A320/M-SDE3FGHIRWY/LB1 |
Departure
| Time | N/A |
|---|---|
| Airport | Ninoy Aquino International Airport (RPLL) |
Arrival
| Time | 2026-05-01 10:26 |
|---|---|
| Airport | Francisco Bangoy International Airport (RPMD) |
| Time | Latitude | Longitude | Altitude | Speed | Heading |
|---|---|---|---|---|---|
| 2026-05-01 10:06 | 7.38316 | 125.40520 | 9756 ft | 307 kts | 195° |
| 2026-05-01 10:07 | 7.36296 | 125.39932 | 9501 ft | 300 kts | 195° |
| 2026-05-01 10:07 | 7.34244 | 125.39571 | 9341 ft | 300 kts | 180° |
| 2026-05-01 10:07 | 7.32185 | 125.39744 | 8982 ft | 295 kts | 166° |
| 2026-05-01 10:07 | 7.30222 | 125.40169 | 8593 ft | 295 kts | 166° |
| 2026-05-01 10:08 | 7.26175 | 125.41038 | 7791 ft | 293 kts | 166° |
| 2026-05-01 10:08 | 7.24186 | 125.41462 | 7399 ft | 290 kts | 167° |
| 2026-05-01 10:08 | 7.22223 | 125.41880 | 7012 ft | 288 kts | 167° |
| 2026-05-01 10:09 | 7.20262 | 125.42290 | 6619 ft | 287 kts | 167° |
| 2026-05-01 10:09 | 7.18315 | 125.42695 | 6243 ft | 285 kts | 167° |
| 2026-05-01 10:09 | 7.16380 | 125.43098 | 5855 ft | 283 kts | 167° |
| 2026-05-01 10:09 | 7.14459 | 125.43501 | 5474 ft | 281 kts | 167° |
| 2026-05-01 10:10 | 7.12554 | 125.43901 | 5092 ft | 279 kts | 167° |
| 2026-05-01 10:10 | 7.10658 | 125.44302 | 4719 ft | 278 kts | 167° |
| 2026-05-01 10:10 | 7.06975 | 125.45276 | 3979 ft | 266 kts | 152° |
| 2026-05-01 10:11 | 7.05498 | 125.46278 | 3723 ft | 247 kts | 137° |
| 2026-05-01 10:11 | 7.04258 | 125.47361 | 3528 ft | 235 kts | 138° |
| 2026-05-01 10:11 | 7.03030 | 125.48416 | 3301 ft | 230 kts | 138° |
| 2026-05-01 10:11 | 7.01892 | 125.49498 | 3075 ft | 219 kts | 122° |
| 2026-05-01 10:12 | 7.01451 | 125.50880 | 2866 ft | 204 kts | 85° |
| 2026-05-01 10:12 | 7.01874 | 125.52164 | 2708 ft | 188 kts | 52° |
| 2026-05-01 10:12 | 7.03471 | 125.54047 | 2337 ft | 167 kts | 49° |
| 2026-05-01 10:13 | 7.04201 | 125.54895 | 2168 ft | 156 kts | 49° |
| 2026-05-01 10:13 | 7.04905 | 125.55712 | 2028 ft | 153 kts | 49° |
| 2026-05-01 10:13 | 7.05597 | 125.56513 | 1902 ft | 151 kts | 49° |
| 2026-05-01 10:14 | 7.06967 | 125.58099 | 1516 ft | 150 kts | 49° |
| 2026-05-01 10:14 | 7.07651 | 125.58892 | 1318 ft | 150 kts | 49° |
| 2026-05-01 10:14 | 7.08330 | 125.59681 | 1119 ft | 149 kts | 49° |
| 2026-05-01 10:14 | 7.09008 | 125.60468 | 922 ft | 149 kts | 49° |
| 2026-05-01 10:15 | 7.09686 | 125.61254 | 725 ft | 148 kts | 49° |
| 2026-05-01 10:15 | 7.10362 | 125.62038 | 526 ft | 153 kts | 49° |
| 2026-05-01 10:15 | 7.11140 | 125.62928 | 963 ft | 172 kts | 48° |
| 2026-05-01 10:15 | 7.11931 | 125.63831 | 1848 ft | 170 kts | 49° |
| 2026-05-01 10:16 | 7.12743 | 125.64754 | 2212 ft | 185 kts | 48° |
| 2026-05-01 10:16 | 7.13461 | 125.65881 | 2434 ft | 205 kts | 74° |
| 2026-05-01 10:16 | 7.12519 | 125.68679 | 2990 ft | 235 kts | 140° |
| 2026-05-01 10:17 | 7.11079 | 125.69432 | 3013 ft | 235 kts | 159° |
| 2026-05-01 10:17 | 7.07962 | 125.70419 | 3011 ft | 235 kts | 162° |
| 2026-05-01 10:17 | 7.06352 | 125.70603 | 3010 ft | 235 kts | 190° |
| 2026-05-01 10:18 | 7.03354 | 125.69288 | 3001 ft | 236 kts | 208° |
| 2026-05-01 10:18 | 7.01861 | 125.68482 | 3007 ft | 262 kts | 208° |
| 2026-05-01 10:18 | 7.00198 | 125.67574 | 3004 ft | 272 kts | 208° |
| 2026-05-01 10:19 | 6.98525 | 125.66659 | 3012 ft | 273 kts | 208° |
| 2026-05-01 10:19 | 6.96874 | 125.65756 | 3000 ft | 261 kts | 208° |
| 2026-05-01 10:19 | 6.95332 | 125.64913 | 3005 ft | 243 kts | 208° |
| 2026-05-01 10:20 | 6.92681 | 125.63051 | 2849 ft | 231 kts | 238° |
| 2026-05-01 10:20 | 6.92107 | 125.61582 | 2774 ft | 227 kts | 264° |
| 2026-05-01 10:20 | 6.92251 | 125.60025 | 2732 ft | 225 kts | 292° |
| 2026-05-01 10:20 | 6.93071 | 125.58710 | 2683 ft | 223 kts | 318° |
| 2026-05-01 10:21 | 6.94345 | 125.57840 | 2634 ft | 221 kts | 331° |
| 2026-05-01 10:21 | 6.97020 | 125.56287 | 2406 ft | 223 kts | 331° |
| 2026-05-01 10:21 | 6.98350 | 125.55512 | 2292 ft | 220 kts | 331° |
| 2026-05-01 10:22 | 7.01120 | 125.54288 | 2209 ft | 212 kts | 354° |
| 2026-05-01 10:22 | 7.03845 | 125.54823 | 2242 ft | 191 kts | 31° |
| 2026-05-01 10:23 | 7.04842 | 125.55616 | 2139 ft | 178 kts | 48° |
| 2026-05-01 10:23 | 7.06342 | 125.57355 | 1749 ft | 155 kts | 49° |
| 2026-05-01 10:23 | 7.07038 | 125.58165 | 1579 ft | 152 kts | 49° |
| 2026-05-01 10:24 | 7.08407 | 125.59757 | 1155 ft | 149 kts | 49° |
| 2026-05-01 10:24 | 7.09761 | 125.61331 | 750 ft | 148 kts | 49° |
| 2026-05-01 10:25 | 7.11105 | 125.62899 | 333 ft | 148 kts | 49° |
| 2026-05-01 10:25 | 7.12381 | 125.64378 | 101 ft | 115 kts | 49° |
| 2026-05-01 10:26 | 7.12775 | 125.64835 | 102 ft | 44 kts | 51° |
| 2026-05-01 10:26 | 7.12875 | 125.64920 | 102 ft | 10 kts | 351° |
| 2026-05-01 10:26 | 7.12947 | 125.64860 | 102 ft | 5 kts | 321° |
| 2026-05-01 10:27 | 7.13007 | 125.64809 | 101 ft | 10 kts | 309° |
| 2026-05-01 10:27 | 7.12979 | 125.64726 | 101 ft | 1 kts | 228° |
| 2026-05-01 10:28 | 7.12978 | 125.64724 | 101 ft | 0 kts | 228° |
| 2026-05-01 10:28 | 7.12979 | 125.64687 | 101 ft | 6 kts | 318° |
| 2026-05-01 10:28 | 7.13013 | 125.64666 | 101 ft | 5 kts | 327° |
| 2026-05-01 10:29 | 7.13033 | 125.64649 | 101 ft | 4 kts | 321° |
| 2026-05-01 10:29 | 7.13035 | 125.64647 | 101 ft | 0 kts | 321° |